createdAt,value
2018-11-26T00:00:57.783Z,1003.26
2018-11-26T00:01:49.311Z,1003.26
2018-11-26T00:02:49.199Z,1003.22
2018-11-26T00:03:49.352Z,1003.19
2018-11-26T00:04:49.186Z,1003.20
2018-11-26T00:05:49.171Z,1003.18
2018-11-26T00:06:49.235Z,1003.14
2018-11-26T00:07:49.157Z,1003.15
2018-11-26T00:08:49.142Z,1003.19
2018-11-26T00:09:49.168Z,1003.17
2018-11-26T00:10:49.124Z,1003.13
2018-11-26T00:11:49.147Z,1003.10
2018-11-26T00:12:49.099Z,1003.13
2018-11-26T00:13:57.930Z,1003.11
2018-11-26T00:14:49.200Z,1003.14
2018-11-26T00:15:49.079Z,1003.17
2018-11-26T00:16:49.116Z,1003.13
2018-11-26T00:17:49.085Z,1003.08
2018-11-26T00:18:49.027Z,1003.07
2018-11-26T00:19:49.016Z,1003.11
2018-11-26T00:20:49.056Z,1003.10
2018-11-26T00:21:48.996Z,1003.09
2018-11-26T00:22:49.015Z,1003.14
2018-11-26T00:23:48.973Z,1003.12
2018-11-26T00:24:48.963Z,1003.10
2018-11-26T00:25:48.975Z,1003.14
2018-11-26T00:26:48.944Z,1003.16
2018-11-26T00:27:57.579Z,1003.18
2018-11-26T00:28:48.925Z,1003.18
2018-11-26T00:29:48.911Z,1003.13
2018-11-26T00:30:48.911Z,1003.19
2018-11-26T00:31:48.985Z,1003.17
2018-11-26T00:32:48.903Z,1003.16
2018-11-26T00:33:57.432Z,1003.14
2018-11-26T00:34:48.860Z,1003.15
2018-11-26T00:35:48.862Z,1003.13
2018-11-26T00:36:48.835Z,1003.07
2018-11-26T00:37:48.821Z,1003.10
2018-11-26T00:38:48.868Z,1003.07
2018-11-26T00:39:48.805Z,1003.11
2018-11-26T00:40:48.794Z,1003.10
2018-11-26T00:41:48.789Z,1003.10
2018-11-26T00:42:48.787Z,1003.08
2018-11-26T00:43:48.776Z,1003.04
2018-11-26T00:44:48.759Z,1003.05
2018-11-26T00:45:48.741Z,1003.06
2018-11-26T00:46:48.724Z,1003.11
2018-11-26T00:47:48.711Z,1003.09
2018-11-26T00:48:48.732Z,1003.10
2018-11-26T00:49:48.803Z,1003.06
2018-11-26T00:50:48.683Z,1003.09
2018-11-26T00:51:48.677Z,1003.06
2018-11-26T00:52:48.663Z,1003.02
2018-11-26T00:53:48.682Z,1003.01
2018-11-26T00:54:57.210Z,1002.98
2018-11-26T00:55:56.189Z,1002.94
2018-11-26T00:56:57.176Z,1002.96
2018-11-26T00:57:48.618Z,1003.01
2018-11-26T00:58:48.667Z,1002.98
2018-11-26T00:59:48.610Z,1002.93
2018-11-26T01:00:48.599Z,1002.94
2018-11-26T01:01:48.579Z,1002.95
2018-11-26T01:02:48.553Z,1003.00
2018-11-26T01:03:48.543Z,1002.94
2018-11-26T01:04:48.560Z,1002.92
2018-11-26T01:05:57.093Z,1002.93
2018-11-26T01:06:56.160Z,1002.91
2018-11-26T01:07:56.066Z,1002.90
2018-11-26T01:08:56.074Z,1002.89
2018-11-26T01:09:58.440Z,1002.86
2018-11-26T01:10:48.474Z,1002.86
2018-11-26T01:11:57.022Z,1002.85
2018-11-26T01:12:55.999Z,1002.90
2018-11-26T01:13:56.029Z,1002.88
2018-11-26T01:14:48.445Z,1002.89
2018-11-26T01:15:48.434Z,1002.92
2018-11-26T01:16:48.404Z,1002.91
2018-11-26T01:17:48.448Z,1002.98
2018-11-26T01:18:48.383Z,1002.94
2018-11-26T01:19:48.399Z,1002.96
2018-11-26T01:20:48.373Z,1002.94
2018-11-26T01:21:48.391Z,1002.95
2018-11-26T01:22:48.344Z,1003.02
2018-11-26T01:23:56.915Z,1002.96
2018-11-26T01:24:48.372Z,1002.99
2018-11-26T01:25:48.306Z,1002.95
2018-11-26T01:26:48.368Z,1002.99
2018-11-26T01:27:48.284Z,1002.93
2018-11-26T01:28:48.274Z,1002.93
2018-11-26T01:29:48.333Z,1002.96
2018-11-26T01:30:48.284Z,1002.93
2018-11-26T01:31:48.284Z,1002.96
2018-11-26T01:32:48.248Z,1002.93
2018-11-26T01:33:48.258Z,1002.96
2018-11-26T01:34:48.261Z,1002.98
2018-11-26T01:35:48.239Z,1003.00
2018-11-26T01:36:48.207Z,1002.95
2018-11-26T01:37:48.189Z,1003.02
2018-11-26T01:38:48.168Z,1002.99
2018-11-26T01:39:48.220Z,1002.95
2018-11-26T01:40:48.171Z,1003.01
2018-11-26T01:41:48.177Z,1002.96
2018-11-26T01:43:45.449Z,1003.03
2018-11-26T01:44:45.433Z,1002.99
2018-11-26T01:45:45.473Z,1002.98
2018-11-26T01:46:45.418Z,1003.00
2018-11-26T01:47:45.498Z,1003.04
2018-11-26T01:48:45.388Z,1003.01
2018-11-26T01:49:45.432Z,1003.01
2018-11-26T01:50:45.362Z,1003.03
2018-11-26T01:51:45.416Z,1003.02
2018-11-26T01:52:45.375Z,1002.97
2018-11-26T01:53:45.343Z,1003.06
2018-11-26T01:54:45.320Z,1003.05
2018-11-26T01:55:45.309Z,1003.11
2018-11-26T01:56:45.316Z,1003.10
2018-11-26T01:57:45.383Z,1003.09
2018-11-26T01:58:45.286Z,1003.16
2018-11-26T01:59:45.275Z,1003.09
2018-11-26T02:00:45.263Z,1003.16
2018-11-26T02:01:45.294Z,1003.10
2018-11-26T02:02:45.293Z,1003.11
2018-11-26T02:03:45.232Z,1003.07
2018-11-26T02:04:45.212Z,1003.10
2018-11-26T02:05:45.207Z,1003.10
2018-11-26T02:06:45.193Z,1003.12
2018-11-26T02:07:45.197Z,1003.11
2018-11-26T02:08:45.171Z,1003.15
2018-11-26T02:09:45.164Z,1003.13
2018-11-26T02:10:45.151Z,1003.15
2018-11-26T02:11:45.147Z,1003.13
2018-11-26T02:12:45.153Z,1003.14
2018-11-26T02:13:45.125Z,1003.14
2018-11-26T02:14:45.107Z,1003.12
2018-11-26T02:15:45.093Z,1003.14
2018-11-26T02:16:45.083Z,1003.16
2018-11-26T02:17:45.094Z,1003.11
2018-11-26T02:18:45.064Z,1003.13
2018-11-26T02:19:45.054Z,1003.04
2018-11-26T02:20:45.106Z,1003.10
2018-11-26T02:21:45.030Z,1003.06
2018-11-26T02:22:45.018Z,1003.09
2018-11-26T02:23:45.041Z,1003.05
2018-11-26T02:24:45.005Z,1003.01
2018-11-26T02:25:44.989Z,1003.05
2018-11-26T02:26:44.974Z,1003.02
2018-11-26T02:27:44.968Z,1003.02
2018-11-26T02:28:44.973Z,1002.98
2018-11-26T02:29:44.967Z,1003.05
2018-11-26T02:30:44.938Z,1003.04
2018-11-26T02:31:44.930Z,1003.04
2018-11-26T02:32:44.910Z,1003.06
2018-11-26T02:33:44.921Z,1003.02
2018-11-26T02:34:44.888Z,1003.03
2018-11-26T02:35:44.889Z,1003.03
2018-11-26T02:36:44.868Z,1003.01
2018-11-26T02:37:44.916Z,1003.03
2018-11-26T02:38:44.887Z,1002.99
2018-11-26T02:39:44.832Z,1003.00
2018-11-26T02:40:44.825Z,1003.00
2018-11-26T02:41:44.812Z,1002.97
2018-11-26T02:42:44.809Z,1003.01
2018-11-26T02:43:44.790Z,1003.00
2018-11-26T02:44:44.801Z,1002.97
2018-11-26T02:45:44.773Z,1002.99
2018-11-26T02:46:44.779Z,1002.98
2018-11-26T02:47:44.751Z,1002.96
2018-11-26T02:48:44.738Z,1003.04
2018-11-26T02:49:44.765Z,1003.05
2018-11-26T02:50:44.716Z,1002.99
2018-11-26T02:51:44.708Z,1003.05
2018-11-26T02:52:44.691Z,1003.04
2018-11-26T02:53:44.684Z,1003.04
2018-11-26T02:54:44.695Z,1003.01
2018-11-26T02:55:44.658Z,1003.04
2018-11-26T02:56:44.650Z,1003.00
2018-11-26T02:57:44.641Z,1003.03
2018-11-26T02:58:44.647Z,1002.97
2018-11-26T02:59:44.642Z,1003.03
2018-11-26T03:00:44.618Z,1003.00
2018-11-26T03:01:44.599Z,1002.99
2018-11-26T03:02:44.585Z,1003.00
2018-11-26T03:03:44.575Z,1003.00
2018-11-26T03:04:44.564Z,1003.01
2018-11-26T03:05:44.571Z,1003.02
2018-11-26T03:06:44.567Z,1003.01
2018-11-26T03:07:44.532Z,1003.00
2018-11-26T03:08:44.531Z,1003.02
2018-11-26T03:09:44.513Z,1002.99
2018-11-26T03:10:44.522Z,1002.98
2018-11-26T03:11:44.492Z,1003.03
2018-11-26T03:12:44.477Z,1002.99
2018-11-26T03:13:44.467Z,1003.01
2018-11-26T03:14:44.456Z,1003.02
2018-11-26T03:15:44.475Z,1002.98
2018-11-26T03:16:44.437Z,1003.01
2018-11-26T03:17:44.423Z,1002.96
2018-11-26T03:18:44.411Z,1002.94
2018-11-26T03:19:44.462Z,1002.97
2018-11-26T03:20:44.415Z,1002.97
2018-11-26T03:21:44.392Z,1002.98
2018-11-26T03:22:44.378Z,1002.97
2018-11-26T03:23:44.369Z,1002.98
2018-11-26T03:24:44.350Z,1002.96
2018-11-26T03:25:44.383Z,1002.96
2018-11-26T03:26:44.329Z,1002.96
2018-11-26T03:27:44.327Z,1002.94
2018-11-26T03:28:44.312Z,1002.96
2018-11-26T03:29:44.296Z,1002.96
2018-11-26T03:30:44.287Z,1002.97
2018-11-26T03:31:44.297Z,1002.99
2018-11-26T03:32:44.269Z,1002.98
2018-11-26T03:33:44.263Z,1002.94
2018-11-26T03:34:44.249Z,1002.99
2018-11-26T03:35:44.228Z,1002.97
2018-11-26T03:36:44.241Z,1003.03
2018-11-26T03:37:44.209Z,1002.99
2018-11-26T03:38:44.197Z,1003.07
2018-11-26T03:39:44.199Z,1003.01
2018-11-26T03:40:44.175Z,1003.05
2018-11-26T03:41:44.162Z,1003.06
2018-11-26T03:42:44.171Z,1003.04
2018-11-26T03:43:44.140Z,1003.06
2018-11-26T03:44:44.134Z,1003.07
2018-11-26T03:45:44.123Z,1003.07
2018-11-26T03:46:44.132Z,1003.06
2018-11-26T03:47:44.119Z,1003.09
2018-11-26T03:48:44.094Z,1003.10
2018-11-26T03:49:44.082Z,1003.09
2018-11-26T03:50:44.076Z,1003.13
2018-11-26T03:51:44.065Z,1003.14
2018-11-26T03:52:44.091Z,1003.11
2018-11-26T03:53:44.054Z,1003.12
2018-11-26T03:54:44.030Z,1003.12
2018-11-26T03:55:44.013Z,1003.12
2018-11-26T03:56:44.011Z,1003.10
2018-11-26T03:57:44.017Z,1003.16
2018-11-26T03:58:43.978Z,1003.15
2018-11-26T03:59:43.971Z,1003.12
2018-11-26T04:00:43.965Z,1003.09
2018-11-26T04:01:43.962Z,1003.18
2018-11-26T04:02:43.960Z,1003.15
2018-11-26T04:03:43.927Z,1003.18
2018-11-26T04:04:43.954Z,1003.14
2018-11-26T04:05:43.908Z,1003.17
2018-11-26T04:06:43.898Z,1003.15
2018-11-26T04:07:43.910Z,1003.15
2018-11-26T04:08:43.883Z,1003.16
2018-11-26T04:09:43.867Z,1003.11
2018-11-26T04:10:43.851Z,1003.12
2018-11-26T04:11:43.839Z,1003.10
2018-11-26T04:12:43.850Z,1003.08
2018-11-26T04:13:43.843Z,1003.11
2018-11-26T04:14:43.815Z,1003.09
2018-11-26T04:15:43.804Z,1003.06
2018-11-26T04:16:43.790Z,1003.13
2018-11-26T04:17:43.802Z,1003.10
2018-11-26T04:18:43.769Z,1003.04
2018-11-26T04:19:43.757Z,1003.09
2018-11-26T04:20:43.743Z,1003.10
2018-11-26T04:21:43.738Z,1003.10
2018-11-26T04:22:43.741Z,1003.09
2018-11-26T04:23:43.711Z,1003.09
2018-11-26T04:24:43.709Z,1003.13
2018-11-26T04:25:43.687Z,1003.08
2018-11-26T04:26:43.679Z,1003.10
2018-11-26T04:27:43.696Z,1003.08
2018-11-26T04:28:43.667Z,1003.15
2018-11-26T04:29:43.652Z,1003.12
2018-11-26T04:30:51.191Z,1003.09
2018-11-26T04:31:43.629Z,1003.12
2018-11-26T04:32:43.639Z,1003.15
2018-11-26T04:33:43.603Z,1003.14
2018-11-26T04:34:43.643Z,1003.11
2018-11-26T04:35:43.584Z,1003.11
2018-11-26T04:36:43.571Z,1003.11
2018-11-26T04:37:43.583Z,1003.13
2018-11-26T04:38:43.554Z,1003.13
2018-11-26T04:39:43.555Z,1003.08
2018-11-26T04:40:43.552Z,1003.12
2018-11-26T04:41:43.546Z,1003.11
2018-11-26T04:42:43.520Z,1003.11
2018-11-26T04:43:43.518Z,1003.03
2018-11-26T04:44:43.493Z,1003.05
2018-11-26T04:45:43.486Z,1003.08
2018-11-26T04:46:43.463Z,1003.02
2018-11-26T04:47:43.476Z,1002.97
2018-11-26T04:48:43.481Z,1002.98
2018-11-26T04:49:43.465Z,1002.96
2018-11-26T04:50:43.429Z,1002.97
2018-11-26T04:51:43.422Z,1002.95
2018-11-26T04:52:43.439Z,1002.92
2018-11-26T04:53:43.396Z,1002.97
2018-11-26T04:54:43.424Z,1002.96
2018-11-26T04:55:43.407Z,1002.97
2018-11-26T04:56:43.400Z,1002.93
2018-11-26T04:57:43.343Z,1002.96
2018-11-26T04:58:43.341Z,1002.96
2018-11-26T04:59:43.350Z,1002.96
2018-11-26T05:00:43.347Z,1002.93
2018-11-26T05:01:51.922Z,1002.88
2018-11-26T05:02:43.296Z,1002.88
2018-11-26T05:03:43.322Z,1002.90
2018-11-26T05:04:43.325Z,1002.89
2018-11-26T05:05:43.277Z,1002.87
2018-11-26T05:06:43.255Z,1002.85
2018-11-26T05:07:43.275Z,1002.88
2018-11-26T05:08:43.224Z,1002.88
2018-11-26T05:09:43.218Z,1002.85
2018-11-26T05:10:43.246Z,1002.91
2018-11-26T05:11:43.203Z,1002.92
2018-11-26T05:12:43.186Z,1002.88
2018-11-26T05:13:43.172Z,1002.90
2018-11-26T05:14:43.164Z,1002.96
2018-11-26T05:15:43.154Z,1002.90
2018-11-26T05:16:43.163Z,1002.92
2018-11-26T05:17:43.162Z,1002.96
2018-11-26T05:18:43.117Z,1002.93
2018-11-26T05:19:43.117Z,1002.93
2018-11-26T05:20:43.096Z,1002.97
2018-11-26T05:21:43.147Z,1002.88
2018-11-26T05:22:43.095Z,1002.88
2018-11-26T05:23:43.104Z,1002.88
2018-11-26T05:24:43.061Z,1002.87
2018-11-26T05:25:43.047Z,1002.89
2018-11-26T05:26:43.070Z,1002.86
2018-11-26T05:27:43.023Z,1002.88
2018-11-26T05:28:43.017Z,1002.91
2018-11-26T05:29:43.033Z,1002.91
2018-11-26T05:30:42.986Z,1002.87
2018-11-26T05:31:43.005Z,1002.91
2018-11-26T05:32:42.999Z,1002.91
2018-11-26T05:33:42.965Z,1002.85
2018-11-26T05:34:42.971Z,1002.90
2018-11-26T05:35:42.954Z,1002.87
2018-11-26T05:36:42.929Z,1002.88
2018-11-26T05:37:42.938Z,1002.86
2018-11-26T05:38:42.924Z,1002.88
2018-11-26T05:39:42.890Z,1002.87
2018-11-26T05:40:42.890Z,1002.92
2018-11-26T05:41:42.870Z,1002.86
2018-11-26T05:42:42.883Z,1002.83
2018-11-26T05:43:42.872Z,1002.90
2018-11-26T05:44:42.843Z,1002.89
2018-11-26T05:45:42.829Z,1002.85
2018-11-26T05:46:42.824Z,1002.89
2018-11-26T05:47:42.811Z,1002.89
2018-11-26T05:48:42.814Z,1002.88
2018-11-26T05:49:42.810Z,1002.87
2018-11-26T05:50:42.776Z,1002.89
2018-11-26T05:51:42.770Z,1002.86
2018-11-26T05:52:42.777Z,1002.86
2018-11-26T05:53:42.767Z,1002.87
2018-11-26T05:54:42.732Z,1002.89
2018-11-26T05:55:42.724Z,1002.86
2018-11-26T05:56:42.721Z,1002.88
2018-11-26T05:57:42.700Z,1002.89
2018-11-26T05:58:42.719Z,1002.91
2018-11-26T05:59:42.682Z,1002.90
2018-11-26T06:00:42.665Z,1002.94
2018-11-26T06:01:42.685Z,1002.91
2018-11-26T06:02:42.645Z,1002.94
2018-11-26T06:03:42.648Z,1002.93
2018-11-26T06:04:42.656Z,1002.87
2018-11-26T06:05:42.619Z,1002.91
2018-11-26T06:06:42.599Z,1002.90
2018-11-26T06:07:42.597Z,1002.89
2018-11-26T06:08:42.578Z,1002.91
2018-11-26T06:09:42.597Z,1002.93
2018-11-26T06:10:42.563Z,1002.92
2018-11-26T06:11:42.556Z,1002.94
2018-11-26T06:12:42.536Z,1002.98
2018-11-26T06:13:42.524Z,1002.94
2018-11-26T06:14:42.545Z,1002.94
2018-11-26T06:15:42.526Z,1002.95
2018-11-26T06:16:42.583Z,1002.98
2018-11-26T06:17:42.485Z,1002.95
2018-11-26T06:18:42.476Z,1002.98
2018-11-26T06:19:42.470Z,1002.96
2018-11-26T06:20:42.486Z,1002.99
2018-11-26T06:21:42.454Z,1003.01
2018-11-26T06:22:42.454Z,1003.00
2018-11-26T06:23:42.417Z,1003.00
2018-11-26T06:24:42.428Z,1002.98
2018-11-26T06:25:42.401Z,1002.98
2018-11-26T06:26:42.402Z,1003.00
2018-11-26T06:27:42.399Z,1003.02
2018-11-26T06:28:42.374Z,1003.07
2018-11-26T06:29:42.382Z,1003.08
2018-11-26T06:30:42.369Z,1003.07
2018-11-26T06:31:42.330Z,1003.06
2018-11-26T06:32:42.321Z,1003.14
2018-11-26T06:33:42.319Z,1003.11
2018-11-26T06:34:42.547Z,1003.11
2018-11-26T06:35:42.307Z,1003.12
2018-11-26T06:36:42.275Z,1003.18
2018-11-26T06:37:42.276Z,1003.15
2018-11-26T06:38:42.256Z,1003.21
2018-11-26T06:39:42.242Z,1003.26
2018-11-26T06:40:42.271Z,1003.30
2018-11-26T06:41:42.248Z,1003.22
2018-11-26T06:42:42.213Z,1003.27
2018-11-26T06:43:42.200Z,1003.32
2018-11-26T06:44:42.190Z,1003.34
2018-11-26T06:45:42.201Z,1003.36
2018-11-26T06:46:42.201Z,1003.39
2018-11-26T06:47:42.164Z,1003.42
2018-11-26T06:48:42.170Z,1003.41
2018-11-26T06:49:42.141Z,1003.47
2018-11-26T06:50:42.154Z,1003.47
2018-11-26T06:51:42.117Z,1003.46
2018-11-26T06:52:42.145Z,1003.53
2018-11-26T06:53:42.118Z,1003.52
2018-11-26T06:54:42.082Z,1003.52
2018-11-26T06:55:42.092Z,1003.54
2018-11-26T06:56:42.059Z,1003.58
2018-11-26T06:57:42.073Z,1003.58
2018-11-26T06:58:42.043Z,1003.53
2018-11-26T06:59:42.039Z,1003.60
2018-11-26T07:00:42.036Z,1003.60
2018-11-26T07:01:42.006Z,1003.60
2018-11-26T07:02:42.003Z,1003.61
2018-11-26T07:03:41.990Z,1003.55
2018-11-26T07:04:41.977Z,1003.59
2018-11-26T07:05:41.978Z,1003.57
2018-11-26T07:06:41.955Z,1003.57
2018-11-26T07:07:41.948Z,1003.62
2018-11-26T07:08:41.939Z,1003.54
2018-11-26T07:09:41.921Z,1003.58
2018-11-26T07:10:41.928Z,1003.62
2018-11-26T07:11:41.910Z,1003.62
2018-11-26T07:12:41.887Z,1003.58
2018-11-26T07:13:41.882Z,1003.56
2018-11-26T07:14:41.896Z,1003.60
2018-11-26T07:15:41.881Z,1003.57
2018-11-26T07:16:41.845Z,1003.62
2018-11-26T07:17:41.874Z,1003.59
2018-11-26T07:18:41.892Z,1003.66
2018-11-26T07:19:41.842Z,1003.63
2018-11-26T07:20:41.819Z,1003.67
2018-11-26T07:21:41.925Z,1003.66
2018-11-26T07:22:41.779Z,1003.65
2018-11-26T07:23:41.784Z,1003.64
2018-11-26T07:24:41.760Z,1003.66
2018-11-26T07:25:41.797Z,1003.68
2018-11-26T07:26:41.786Z,1003.73
2018-11-26T07:27:41.728Z,1003.70
2018-11-26T07:28:41.711Z,1003.71
2018-11-26T07:29:41.706Z,1003.69
2018-11-26T07:30:41.717Z,1003.70
2018-11-26T07:31:41.744Z,1003.75
2018-11-26T07:32:41.743Z,1003.72
2018-11-26T07:33:41.669Z,1003.73
2018-11-26T07:34:41.663Z,1003.74
2018-11-26T07:35:41.670Z,1003.73
2018-11-26T07:36:41.695Z,1003.76
2018-11-26T07:37:41.648Z,1003.79
2018-11-26T07:38:41.691Z,1003.74
2018-11-26T07:39:41.601Z,1003.76
2018-11-26T07:40:41.587Z,1003.78
2018-11-26T07:41:41.613Z,1003.82
2018-11-26T07:42:41.638Z,1003.81
2018-11-26T07:43:49.835Z,1003.84
2018-11-26T07:44:41.599Z,1003.80
2018-11-26T07:45:41.540Z,1003.89
2018-11-26T07:46:41.570Z,1003.85
2018-11-26T07:47:41.520Z,1003.88
2018-11-26T07:48:41.596Z,1003.88
2018-11-26T07:49:41.492Z,1003.89
2018-11-26T07:50:41.593Z,1003.90
2018-11-26T07:52:57.677Z,1003.93
2018-11-26T07:53:57.678Z,1003.91
2018-11-26T07:54:57.617Z,1003.89
2018-11-26T07:56:05.191Z,1003.94
2018-11-26T07:56:57.596Z,1003.92
2018-11-26T07:57:57.637Z,1003.92
2018-11-26T07:58:57.591Z,1003.93
2018-11-26T07:59:57.588Z,1003.93
2018-11-26T08:00:57.573Z,1004.01
2018-11-26T08:01:57.547Z,1004.03
2018-11-26T08:02:57.589Z,1003.99
2018-11-26T08:03:57.535Z,1004.05
2018-11-26T08:04:57.515Z,1004.03
2018-11-26T08:05:57.500Z,1004.04
2018-11-26T08:06:57.488Z,1004.06
2018-11-26T08:07:57.492Z,1004.11
2018-11-26T08:08:57.494Z,1004.09
2018-11-26T08:09:57.459Z,1004.13
2018-11-26T08:10:57.452Z,1004.11
2018-11-26T08:11:57.434Z,1004.14
2018-11-26T08:12:57.463Z,1004.12
2018-11-26T08:13:57.447Z,1004.14
2018-11-26T08:14:57.399Z,1004.16
2018-11-26T08:15:57.404Z,1004.14
2018-11-26T08:16:57.377Z,1004.13
2018-11-26T08:17:57.370Z,1004.19
2018-11-26T08:18:57.359Z,1004.18
2018-11-26T08:19:57.381Z,1004.20
2018-11-26T08:20:57.337Z,1004.24
2018-11-26T08:21:57.330Z,1004.23
2018-11-26T08:22:57.339Z,1004.25
2018-11-26T08:23:57.318Z,1004.25
2018-11-26T08:24:57.351Z,1004.21
2018-11-26T08:25:57.298Z,1004.26
2018-11-26T08:26:57.283Z,1004.26
2018-11-26T08:27:57.364Z,1004.22
2018-11-26T08:28:57.251Z,1004.30
2018-11-26T08:29:57.238Z,1004.31
2018-11-26T08:30:57.248Z,1004.31
2018-11-26T08:31:57.350Z,1004.30
2018-11-26T08:32:57.216Z,1004.28
2018-11-26T08:33:57.196Z,1004.26
2018-11-26T08:34:57.218Z,1004.31
2018-11-26T08:35:57.178Z,1004.28
2018-11-26T08:36:57.164Z,1004.31
2018-11-26T08:37:57.158Z,1004.34
2018-11-26T08:38:57.173Z,1004.39
2018-11-26T08:39:57.135Z,1004.36
2018-11-26T08:40:57.138Z,1004.35
2018-11-26T08:41:57.114Z,1004.37
2018-11-26T08:42:57.109Z,1004.38
2018-11-26T08:43:57.087Z,1004.42
2018-11-26T08:44:57.094Z,1004.42
2018-11-26T08:45:57.085Z,1004.43
2018-11-26T08:46:57.062Z,1004.47
2018-11-26T08:47:57.044Z,1004.46
2018-11-26T08:48:57.033Z,1004.50
2018-11-26T08:49:57.022Z,1004.45
2018-11-26T08:50:57.065Z,1004.49
2018-11-26T08:51:57.013Z,1004.51
2018-11-26T08:52:57.002Z,1004.52
2018-11-26T08:53:56.991Z,1004.54
2018-11-26T08:54:56.969Z,1004.55
2018-11-26T08:55:56.975Z,1004.55
2018-11-26T08:56:56.955Z,1004.58
2018-11-26T08:57:56.943Z,1004.59
2018-11-26T08:58:56.924Z,1004.61
2018-11-26T08:59:56.916Z,1004.66
2018-11-26T09:00:56.934Z,1004.63
2018-11-26T09:01:56.931Z,1004.63
2018-11-26T09:02:56.886Z,1004.65
2018-11-26T09:03:56.872Z,1004.63
2018-11-26T09:04:56.868Z,1004.65
2018-11-26T09:05:56.877Z,1004.63
2018-11-26T09:06:56.846Z,1004.68
2018-11-26T09:07:56.836Z,1004.69
2018-11-26T09:08:56.836Z,1004.67
2018-11-26T09:09:56.810Z,1004.71
2018-11-26T09:10:56.811Z,1004.70
2018-11-26T09:11:56.785Z,1004.73
2018-11-26T09:12:56.775Z,1004.73
2018-11-26T09:13:56.771Z,1004.72
2018-11-26T09:14:56.805Z,1004.77
2018-11-26T09:15:56.809Z,1004.77
2018-11-26T09:16:56.732Z,1004.80
2018-11-26T09:17:56.731Z,1004.81
2018-11-26T09:18:56.708Z,1004.83
2018-11-26T09:19:56.702Z,1004.83
2018-11-26T09:20:56.713Z,1004.85
2018-11-26T09:21:56.719Z,1004.89
2018-11-26T09:22:56.671Z,1004.88
2018-11-26T09:23:56.653Z,1004.92
2018-11-26T09:24:56.643Z,1004.99
2018-11-26T09:26:05.430Z,1004.97
2018-11-26T09:26:56.622Z,1005.01
2018-11-26T09:27:56.615Z,1005.00
2018-11-26T09:28:56.627Z,1005.00
2018-11-26T09:29:56.593Z,1005.01
2018-11-26T09:30:56.579Z,1005.06
2018-11-26T09:31:56.614Z,1005.08
2018-11-26T09:33:04.138Z,1005.08
2018-11-26T09:33:56.548Z,1005.06
2018-11-26T09:34:56.543Z,1005.12
2018-11-26T09:35:56.528Z,1005.11
2018-11-26T09:36:56.515Z,1005.07
2018-11-26T09:37:56.563Z,1005.09
2018-11-26T09:38:56.493Z,1005.10
2018-11-26T09:39:56.481Z,1005.10
2018-11-26T09:40:56.495Z,1005.06
2018-11-26T09:41:56.500Z,1005.11
2018-11-26T09:42:56.474Z,1005.11
2018-11-26T09:43:56.437Z,1005.05
2018-11-26T09:44:56.437Z,1005.08
2018-11-26T09:45:56.418Z,1005.03
2018-11-26T09:46:56.410Z,1005.08
2018-11-26T09:47:56.427Z,1005.06
2018-11-26T09:48:56.397Z,1005.06
2018-11-26T09:49:56.377Z,1005.11
2018-11-26T09:50:56.365Z,1005.08
2018-11-26T09:51:56.352Z,1005.10
2018-11-26T09:52:56.370Z,1005.02
2018-11-26T09:53:56.334Z,1005.09
2018-11-26T09:54:56.329Z,1005.10
2018-11-26T09:55:56.308Z,1005.11
2018-11-26T09:56:56.345Z,1005.13
2018-11-26T09:57:56.293Z,1005.08
2018-11-26T09:58:56.308Z,1005.06
2018-11-26T09:59:56.267Z,1005.02
2018-11-26T10:00:56.259Z,1005.10
2018-11-26T10:01:56.243Z,1005.08
2018-11-26T10:02:56.263Z,1005.11
2018-11-26T10:03:56.263Z,1005.12
2018-11-26T10:04:56.213Z,1005.15
2018-11-26T10:05:56.205Z,1005.14
2018-11-26T10:06:56.196Z,1005.13
2018-11-26T10:07:56.187Z,1005.18
2018-11-26T10:08:56.172Z,1005.17
2018-11-26T10:09:56.180Z,1005.19
2018-11-26T10:10:56.194Z,1005.15
2018-11-26T10:11:56.142Z,1005.14
2018-11-26T10:12:56.131Z,1005.17
2018-11-26T10:13:56.124Z,1005.12
2018-11-26T10:14:56.111Z,1005.18
2018-11-26T10:15:56.116Z,1005.13
2018-11-26T10:16:56.094Z,1005.14
2018-11-26T10:17:56.077Z,1005.13
2018-11-26T10:18:56.070Z,1005.16
2018-11-26T10:19:56.053Z,1005.16
2018-11-26T10:20:56.063Z,1005.20
2018-11-26T10:21:56.036Z,1005.16
2018-11-26T10:22:56.018Z,1005.16
2018-11-26T10:23:56.013Z,1005.18
2018-11-26T10:24:56.008Z,1005.16
2018-11-26T10:25:56.014Z,1005.16
2018-11-26T10:26:55.983Z,1005.14
2018-11-26T10:27:55.968Z,1005.19
2018-11-26T10:28:55.954Z,1005.17
2018-11-26T10:29:55.946Z,1005.17
2018-11-26T10:30:56.005Z,1005.15
2018-11-26T10:31:55.926Z,1005.15
2018-11-26T10:32:55.915Z,1005.17
2018-11-26T10:33:55.918Z,1005.13
2018-11-26T10:34:55.897Z,1005.11
2018-11-26T10:35:55.906Z,1005.12
2018-11-26T10:36:55.869Z,1005.11
2018-11-26T10:37:55.864Z,1005.14
2018-11-26T10:38:55.851Z,1005.12
2018-11-26T10:39:55.844Z,1005.11
2018-11-26T10:40:55.870Z,1005.13
2018-11-26T10:41:55.822Z,1005.11
2018-11-26T10:42:55.843Z,1005.04
2018-11-26T10:43:55.829Z,1005.05
2018-11-26T10:44:55.809Z,1005.04
2018-11-26T10:45:55.781Z,1005.05
2018-11-26T10:46:55.802Z,1005.05
2018-11-26T10:47:55.754Z,1005.06
2018-11-26T10:48:55.762Z,1005.07
2018-11-26T10:49:55.736Z,1005.12
2018-11-26T10:50:55.720Z,1005.08
2018-11-26T10:51:55.749Z,1005.06
2018-11-26T10:52:55.701Z,1005.10
2018-11-26T10:53:55.691Z,1005.13
2018-11-26T10:54:55.682Z,1005.08
2018-11-26T10:55:55.672Z,1005.14
2018-11-26T10:57:05.497Z,1005.12
2018-11-26T10:57:55.643Z,1005.21
2018-11-26T10:58:55.635Z,1005.16
2018-11-26T10:59:55.630Z,1005.21
2018-11-26T11:00:55.615Z,1005.18
2018-11-26T11:01:55.607Z,1005.18
2018-11-26T11:02:55.920Z,1005.20
2018-11-26T11:03:55.581Z,1005.18
2018-11-26T11:04:55.583Z,1005.19
2018-11-26T11:05:55.561Z,1005.21
2018-11-26T11:06:55.947Z,1005.21
2018-11-26T11:07:55.538Z,1005.22
2018-11-26T11:08:55.544Z,1005.15
2018-11-26T11:09:55.519Z,1005.17
2018-11-26T11:10:55.515Z,1005.15
2018-11-26T11:11:55.501Z,1005.17
2018-11-26T11:12:55.508Z,1005.19
2018-11-26T11:13:55.478Z,1005.16
2018-11-26T11:14:55.500Z,1005.15
2018-11-26T11:15:55.457Z,1005.20
2018-11-26T11:16:55.465Z,1005.18
2018-11-26T11:17:55.481Z,1005.18
2018-11-26T11:18:55.431Z,1005.22
2018-11-26T11:19:55.454Z,1005.23
2018-11-26T11:20:55.449Z,1005.23
2018-11-26T11:21:55.386Z,1005.24
2018-11-26T11:22:55.440Z,1005.24
2018-11-26T11:23:55.369Z,1005.25
2018-11-26T11:24:55.356Z,1005.27
2018-11-26T11:25:55.371Z,1005.29
2018-11-26T11:26:55.363Z,1005.32
2018-11-26T11:27:56.417Z,1005.31
2018-11-26T11:28:55.315Z,1005.30
2018-11-26T11:29:55.316Z,1005.31
2018-11-26T11:30:55.293Z,1005.30
2018-11-26T11:31:55.564Z,1005.31
2018-11-26T11:34:15.757Z,1005.28
2018-11-26T11:36:25.993Z,1005.29
2018-11-26T11:38:36.659Z,1005.25
2018-11-26T11:39:36.637Z,1005.25
2018-11-26T11:40:36.628Z,1005.27
2018-11-26T11:41:36.747Z,1005.28
2018-11-26T11:42:36.603Z,1005.26
2018-11-26T11:43:36.631Z,1005.25
2018-11-26T11:44:36.562Z,1005.29
2018-11-26T11:45:36.562Z,1005.26
2018-11-26T11:46:36.556Z,1005.23
2018-11-26T11:47:36.531Z,1005.26
2018-11-26T11:48:36.532Z,1005.24
2018-11-26T11:50:56.488Z,1005.27
2018-11-26T11:51:56.400Z,1005.23
2018-11-26T11:53:07.925Z,1005.23
2018-11-26T11:53:56.397Z,1005.19
2018-11-26T11:54:56.355Z,1005.24
2018-11-26T11:55:56.363Z,1005.20
2018-11-26T11:56:56.332Z,1005.16
2018-11-26T11:57:56.323Z,1005.21
2018-11-26T11:58:56.547Z,1005.17
2018-11-26T11:59:56.309Z,1005.19
2018-11-26T12:00:56.288Z,1005.20
2018-11-26T12:01:56.299Z,1005.24
2018-11-26T12:02:56.267Z,1005.20
2018-11-26T12:03:56.371Z,1005.17
2018-11-26T12:04:56.244Z,1005.19
2018-11-26T12:05:56.263Z,1005.20
2018-11-26T12:06:56.226Z,1005.18
2018-11-26T12:07:56.231Z,1005.15
2018-11-26T12:08:56.374Z,1005.18
2018-11-26T12:09:56.194Z,1005.16
2018-11-26T12:10:56.191Z,1005.21
2018-11-26T12:11:56.169Z,1005.22
2018-11-26T12:12:56.171Z,1005.16